Time;durP1;ratioP1;P1;durP2;ratioP2;P2;SDS_P1;SDS_P2;PMS_P1;PMS_P2;Temp;Humidity;BMP_temperature;BMP_pressure;BME280_temperature;BME280_humidity;BME280_pressure;Samples;Min_cycle;Max_cycle;Signal;HPM_P1;HPM_P2
2020/12/20 00:00:23;;;;;;;9.03;7.50;;;9.20;99.90;;;;;;5044590;28;20313;-83
2020/12/20 00:02:54;;;;;;;8.60;6.77;;;9.10;99.90;;;;;;5045912;28;20244;-82
2020/12/20 00:05:23;;;;;;;9.17;7.30;;;9.10;99.90;;;;;;5045766;28;20338;-84
2020/12/20 00:07:52;;;;;;;8.47;7.60;;;9.00;99.90;;;;;;5044067;28;20259;-83
2020/12/20 00:10:22;;;;;;;8.10;7.27;;;9.00;99.90;;;;;;5044136;28;20258;-84
2020/12/20 00:12:51;;;;;;;9.73;7.63;;;8.90;99.90;;;;;;5043280;28;20239;-82
2020/12/20 00:15:20;;;;;;;9.07;8.17;;;8.90;99.90;;;;;;5027531;28;21732;-82
2020/12/20 00:17:49;;;;;;;8.67;7.57;;;8.90;99.90;;;;;;5045239;28;20236;-83
2020/12/20 00:20:18;;;;;;;8.23;7.33;;;8.80;99.90;;;;;;5043688;28;20354;-82
2020/12/20 00:22:47;;;;;;;8.87;7.83;;;8.80;99.90;;;;;;5045051;28;20289;-83
2020/12/20 00:25:15;;;;;;;9.10;8.03;;;8.90;99.90;;;;;;5045174;28;20244;-82
2020/12/20 00:27:43;;;;;;;8.73;7.30;;;8.80;99.90;;;;;;5026417;28;20370;-82
2020/12/20 00:30:16;;;;;;;7.91;7.07;;;8.80;99.90;;;;;;3384528;28;10021527;-83
2020/12/20 00:32:45;;;;;;;9.38;8.43;;;8.80;99.90;;;;;;2781552;28;10001992;-82
2020/12/20 00:35:13;;;;;;;8.93;7.90;;;8.70;99.90;;;;;;5044229;28;20246;-82
2020/12/20 00:37:41;;;;;;;10.17;8.10;;;8.80;99.90;;;;;;5043869;28;20286;-82
2020/12/20 00:40:08;;;;;;;8.80;7.37;;;8.80;99.90;;;;;;5023697;28;20266;-83
2020/12/20 00:42:36;;;;;;;9.87;8.10;;;8.90;99.90;;;;;;5043681;28;20318;-83
2020/12/20 00:45:06;;;;;;;10.83;8.23;;;8.80;99.90;;;;;;5052280;28;20236;-82
2020/12/20 00:47:35;;;;;;;10.00;8.03;;;8.80;99.90;;;;;;5050896;28;20282;-82
2020/12/20 00:50:03;;;;;;;10.77;8.03;;;8.80;99.90;;;;;;5046121;28;20688;-81
2020/12/20 00:52:31;;;;;;;8.70;7.80;;;8.80;99.90;;;;;;5031606;28;20614;-83
2020/12/20 00:55:00;;;;;;;10.27;7.80;;;8.80;99.90;;;;;;5029531;28;21007;-82
2020/12/20 00:57:29;;;;;;;8.57;7.47;;;8.80;99.90;;;;;;5047189;28;20232;-83
2020/12/20 00:59:56;;;;;;;10.37;7.90;;;8.80;99.90;;;;;;5045229;28;20232;-83
2020/12/20 01:02:24;;;;;;;9.10;7.53;;;8.80;99.90;;;;;;5067244;28;20313;-83
2020/12/20 01:04:52;;;;;;;9.63;7.47;;;8.80;99.90;;;;;;5050498;28;21395;-83
2020/12/20 01:07:20;;;;;;;10.20;7.50;;;8.80;99.90;;;;;;5067122;28;20234;-83
2020/12/20 01:09:53;;;;;;;9.67;7.63;;;8.70;99.90;;;;;;5050741;28;20232;-82
2020/12/20 01:12:24;;;;;;;8.37;7.40;;;8.70;99.90;;;;;;5053580;28;20768;-82
2020/12/20 01:15:21;;;;;;;9.50;7.60;;;8.70;99.90;;;;;;5043620;28;20263;-81
2020/12/20 01:17:52;;;;;;;7.97;7.10;;;8.60;99.90;;;;;;5048000;28;20263;-82
2020/12/20 01:20:24;;;;;;;9.03;7.37;;;8.60;99.90;;;;;;5031174;28;20603;-83
2020/12/20 01:22:51;;;;;;;8.30;7.40;;;8.50;99.90;;;;;;5031411;28;20235;-82
2020/12/20 01:25:19;;;;;;;10.07;7.57;;;8.50;99.90;;;;;;5049675;28;20266;-82
2020/12/20 01:27:57;;;;;;;8.80;7.57;;;8.50;99.90;;;;;;5031937;28;20575;-82
2020/12/20 01:30:33;;;;;;;8.23;7.27;;;8.50;99.90;;;;;;5052401;28;20247;-83
2020/12/20 01:33:01;;;;;;;8.50;7.17;;;8.40;99.90;;;;;;5068819;28;20313;-82
2020/12/20 01:35:32;;;;;;;9.33;8.33;;;8.50;99.90;;;;;;5052661;28;20227;-83
2020/12/20 01:37:59;;;;;;;8.23;7.37;;;8.50;99.90;;;;;;5069022;28;20300;-82
2020/12/20 01:40:27;;;;;;;8.93;7.07;;;8.40;99.90;;;;;;5050555;28;20254;-83
2020/12/20 01:42:56;;;;;;;8.83;7.80;;;8.40;99.90;;;;;;5031508;28;20256;-83
2020/12/20 01:45:29;;;;;;;9.17;7.77;;;8.40;99.90;;;;;;5045003;28;20253;-82
2020/12/20 01:47:58;;;;;;;8.40;7.57;;;8.30;99.90;;;;;;5049745;28;20239;-82
2020/12/20 01:50:26;;;;;;;8.33;7.33;;;8.30;99.90;;;;;;5051321;28;20629;-82
2020/12/20 01:52:59;;;;;;;8.63;7.57;;;8.30;99.90;;;;;;5033278;28;20256;-82
2020/12/20 01:55:29;;;;;;;8.50;7.60;;;8.30;99.90;;;;;;5033148;28;20235;-83
2020/12/20 01:58:01;;;;;;;8.87;7.97;;;8.30;99.90;;;;;;5051755;28;20235;-83
2020/12/20 02:00:42;;;;;;;9.07;7.27;;;8.30;99.90;;;;;;5032802;28;20568;-82
2020/12/20 02:03:32;;;;;;;8.53;7.63;;;8.20;99.90;;;;;;5050803;28;20242;-83
2020/12/20 02:06:00;;;;;;;12.00;7.83;;;8.20;99.90;;;;;;5049512;28;20254;-83
2020/12/20 02:08:28;;;;;;;9.00;7.50;;;8.10;99.90;;;;;;5032726;28;20279;-82
2020/12/20 02:11:10;;;;;;;8.90;7.93;;;8.10;99.90;;;;;;5050087;28;20243;-82
2020/12/20 02:13:42;;;;;;;8.23;7.43;;;8.10;99.90;;;;;;5048319;28;20703;-82
2020/12/20 02:16:13;;;;;;;10.70;8.00;;;8.10;99.90;;;;;;5050889;28;20635;-83
2020/12/20 02:18:42;;;;;;;9.93;8.33;;;8.00;99.90;;;;;;5044465;28;20243;-83
2020/12/20 02:21:15;;;;;;;8.30;7.50;;;8.00;99.90;;;;;;5049645;28;20319;-83
2020/12/20 02:23:48;;;;;;;8.60;7.70;;;8.00;99.90;;;;;;5032416;28;20662;-83
2020/12/20 02:26:23;;;;;;;10.07;7.97;;;8.10;99.90;;;;;;5049658;28;20224;-83
2020/12/20 02:28:52;;;;;;;8.43;7.40;;;8.00;99.90;;;;;;5049372;28;20244;-83
2020/12/20 02:31:24;;;;;;;9.17;8.20;;;8.00;99.90;;;;;;5051353;28;20243;-82
2020/12/20 02:33:54;;;;;;;9.33;7.67;;;8.00;99.90;;;;;;5053639;28;20264;-83
2020/12/20 02:36:22;;;;;;;10.40;8.00;;;8.00;99.90;;;;;;5053965;28;20301;-82
2020/12/20 02:38:50;;;;;;;8.47;7.43;;;7.90;99.90;;;;;;5057154;28;20730;-82
2020/12/20 02:41:32;;;;;;;9.33;8.00;;;7.90;99.90;;;;;;5059204;28;20749;-82
2020/12/20 02:44:01;;;;;;;8.60;7.80;;;7.90;99.90;;;;;;5052985;28;20232;-82
2020/12/20 02:46:30;;;;;;;8.90;7.97;;;7.90;99.90;;;;;;5036580;28;20235;-82
2020/12/20 02:49:06;;;;;;;8.87;7.90;;;8.00;99.90;;;;;;5033154;28;20244;-82
2020/12/20 02:51:39;;;;;;;8.13;7.40;;;8.00;99.90;;;;;;5034694;28;20324;-81
2020/12/20 02:54:08;;;;;;;9.90;8.30;;;7.90;99.90;;;;;;5055711;28;20236;-83
2020/12/20 02:56:46;;;;;;;8.93;7.97;;;8.00;99.90;;;;;;5054029;28;20258;-83
2020/12/20 02:59:34;;;;;;;9.27;7.57;;;8.00;99.90;;;;;;5069503;28;20232;-83
2020/12/20 03:02:02;;;;;;;15.57;8.20;;;7.90;99.90;;;;;;5069387;28;21014;-82
2020/12/20 03:04:32;;;;;;;8.37;7.50;;;7.90;99.90;;;;;;5069831;28;20598;-83
2020/12/20 03:07:00;;;;;;;8.87;7.70;;;7.90;99.90;;;;;;5054771;28;20311;-83
2020/12/20 03:09:29;;;;;;;8.40;7.60;;;7.90;99.90;;;;;;5032062;28;20240;-82
2020/12/20 03:11:58;;;;;;;9.23;8.33;;;7.90;99.90;;;;;;5032499;28;20228;-82
2020/12/20 03:14:25;;;;;;;9.80;7.20;;;7.90;99.90;;;;;;5030079;28;20259;-82
2020/12/20 03:16:58;;;;;;;8.73;7.77;;;7.80;99.90;;;;;;5049435;28;20239;-82
2020/12/20 03:19:26;;;;;;;9.67;7.77;;;7.80;99.90;;;;;;5034116;28;20240;-83
2020/12/20 03:21:57;;;;;;;8.93;7.70;;;7.80;99.90;;;;;;5012739;28;20283;-82
2020/12/20 03:24:52;;;;;;;7.87;7.17;;;7.80;99.90;;;;;;5009701;28;20229;-82
2020/12/20 03:27:36;;;;;;;8.37;7.33;;;7.80;99.90;;;;;;5028962;28;20248;-82
2020/12/20 03:30:22;;;;;;;8.57;7.67;;;7.80;99.90;;;;;;5042114;28;20250;-83
2020/12/20 03:33:13;;;;;;;8.80;7.13;;;7.80;99.90;;;;;;5042567;28;20679;-83
2020/12/20 03:35:55;;;;;;;8.97;7.57;;;7.80;99.90;;;;;;5051267;28;20239;-82
2020/12/20 03:38:22;;;;;;;8.63;7.37;;;7.80;99.90;;;;;;5031349;28;20240;-82
2020/12/20 03:40:51;;;;;;;8.90;8.00;;;7.70;99.90;;;;;;5032223;28;20272;-83
2020/12/20 03:43:19;;;;;;;9.57;8.23;;;7.80;99.90;;;;;;5048606;28;20251;-84
2020/12/20 03:45:53;;;;;;;8.23;7.00;;;7.80;99.90;;;;;;5032334;28;20234;-83
2020/12/20 03:48:30;;;;;;;8.83;7.87;;;7.70;99.90;;;;;;5032099;28;20275;-83
2020/12/20 03:51:13;;;;;;;9.77;8.00;;;7.80;99.90;;;;;;5035008;28;20267;-83
2020/12/20 03:53:46;;;;;;;8.70;7.77;;;7.80;99.90;;;;;;5035278;28;20255;-83
2020/12/20 03:56:16;;;;;;;8.23;7.43;;;7.70;99.90;;;;;;5051721;28;20255;-82
2020/12/20 03:58:56;;;;;;;10.37;8.00;;;7.70;99.90;;;;;;5051935;28;20232;-83
2020/12/20 04:01:24;;;;;;;8.70;7.80;;;7.70;99.90;;;;;;5051369;28;20242;-82
2020/12/20 04:03:52;;;;;;;8.77;7.83;;;7.70;99.90;;;;;;5051617;28;20314;-82
2020/12/20 04:06:21;;;;;;;10.07;7.50;;;7.70;99.90;;;;;;5038875;28;20238;-82
2020/12/20 04:08:48;;;;;;;8.70;7.80;;;7.70;99.90;;;;;;5033754;28;20285;-82
2020/12/20 04:11:30;;;;;;;9.13;7.40;;;7.70;99.90;;;;;;5044701;28;20682;-83
2020/12/20 04:13:58;;;;;;;9.53;7.60;;;7.70;99.90;;;;;;5045616;28;20235;-82
2020/12/20 04:16:28;;;;;;;8.53;7.33;;;7.70;99.90;;;;;;5051325;28;20227;-83
2020/12/20 04:18:56;;;;;;;8.90;7.20;;;7.70;99.90;;;;;;5034451;28;20784;-82
2020/12/20 04:21:33;;;;;;;8.83;7.93;;;7.70;99.90;;;;;;5038893;28;20264;-82
2020/12/20 04:24:08;;;;;;;8.57;7.77;;;7.70;99.90;;;;;;5014290;28;20228;-82
2020/12/20 04:26:36;;;;;;;9.27;8.27;;;7.70;99.90;;;;;;5031210;28;20286;-82
2020/12/20 04:29:20;;;;;;;9.33;8.27;;;7.70;99.90;;;;;;5014937;28;20259;-82
2020/12/20 04:31:54;;;;;;;9.37;7.70;;;7.70;99.90;;;;;;5030874;28;20251;-83
2020/12/20 04:34:23;;;;;;;8.97;8.07;;;7.70;99.90;;;;;;5030605;28;20236;-81
2020/12/20 04:36:54;;;;;;;8.70;7.80;;;7.70;99.90;;;;;;5051072;28;20250;-83
2020/12/20 04:39:37;;;;;;;8.90;7.70;;;7.70;99.90;;;;;;5033631;28;20235;-83
2020/12/20 04:42:05;;;;;;;8.30;7.43;;;7.70;99.90;;;;;;5051877;28;20227;-83
2020/12/20 04:44:34;;;;;;;8.70;7.80;;;7.70;99.90;;;;;;5051959;28;20236;-81
2020/12/20 04:47:07;;;;;;;9.07;8.07;;;7.70;99.90;;;;;;5050744;28;20286;-83
2020/12/20 04:49:44;;;;;;;9.00;7.90;;;7.70;99.90;;;;;;5069705;28;20235;-84
2020/12/20 04:52:19;;;;;;;8.90;7.80;;;7.70;99.90;;;;;;5070644;28;20238;-83
2020/12/20 04:54:48;;;;;;;9.93;8.17;;;7.70;99.90;;;;;;5070013;28;20285;-82
2020/12/20 04:57:44;;;;;;;8.10;7.30;;;7.70;99.90;;;;;;5070995;28;20235;-82
2020/12/20 05:00:15;;;;;;;9.70;7.93;;;7.70;99.90;;;;;;5070589;28;20648;-82
2020/12/20 05:02:45;;;;;;;8.67;7.73;;;7.80;99.90;;;;;;5069847;28;20238;-82
2020/12/20 05:05:15;;;;;;;9.63;7.97;;;7.80;99.90;;;;;;5050170;28;20286;-82
2020/12/20 05:07:45;;;;;;;9.70;7.80;;;7.70;99.90;;;;;;5048001;28;20240;-82
2020/12/20 05:10:16;;;;;;;9.40;8.07;;;7.80;99.90;;;;;;5033402;28;20236;-81
2020/12/20 05:12:47;;;;;;;8.73;7.43;;;7.80;99.90;;;;;;5032966;28;20236;-82
2020/12/20 05:15:25;;;;;;;8.80;7.57;;;7.80;99.90;;;;;;5051539;28;20284;-82
2020/12/20 05:18:11;;;;;;;9.33;7.80;;;7.80;99.90;;;;;;5050680;28;20278;-82
2020/12/20 05:20:47;;;;;;;8.57;7.67;;;7.70;99.90;;;;;;5051209;28;20663;-82
2020/12/20 05:23:18;;;;;;;8.53;7.43;;;7.70;99.90;;;;;;5053900;28;20229;-82
2020/12/20 05:25:51;;;;;;;8.33;7.53;;;7.70;99.90;;;;;;5040490;28;20227;-83
2020/12/20 05:28:23;;;;;;;9.13;8.17;;;7.80;99.90;;;;;;5032994;28;20327;-83
2020/12/20 05:31:08;;;;;;;8.30;7.50;;;7.80;99.90;;;;;;5051755;28;20895;-83
2020/12/20 05:33:45;;;;;;;8.70;7.80;;;7.80;99.90;;;;;;5050463;28;20314;-82
2020/12/20 05:36:27;;;;;;;8.67;7.87;;;7.80;99.90;;;;;;5030213;28;20250;-83
2020/12/20 05:39:13;;;;;;;8.50;7.60;;;7.80;99.90;;;;;;5048177;28;20227;-82
2020/12/20 05:41:44;;;;;;;8.07;7.27;;;7.80;99.90;;;;;;5048590;28;20687;-83
2020/12/20 05:44:20;;;;;;;8.97;8.00;;;7.80;99.90;;;;;;5018706;28;20757;-82
2020/12/20 05:46:51;;;;;;;9.67;8.50;;;7.80;99.90;;;;;;5033662;28;20256;-83
2020/12/20 05:49:22;;;;;;;9.03;8.13;;;7.80;99.90;;;;;;5032932;28;20257;-82
2020/12/20 05:52:07;;;;;;;9.27;8.17;;;7.80;99.90;;;;;;5039052;28;20256;-82
2020/12/20 05:54:36;;;;;;;8.70;7.80;;;7.80;99.90;;;;;;5028687;28;20233;-83
2020/12/20 05:57:09;;;;;;;8.53;7.73;;;7.80;99.90;;;;;;5031231;28;20263;-82
2020/12/20 05:59:40;;;;;;;9.83;8.00;;;7.80;99.90;;;;;;5018188;28;20284;-82
2020/12/20 06:02:09;;;;;;;8.93;7.87;;;7.80;99.90;;;;;;5019555;28;20237;-82
2020/12/20 06:04:40;;;;;;;8.90;8.00;;;7.80;99.90;;;;;;5013278;28;20276;-82
2020/12/20 06:07:09;;;;;;;9.33;8.30;;;7.80;99.90;;;;;;5016010;28;20257;-82
2020/12/20 06:09:57;;;;;;;10.20;8.27;;;7.80;99.90;;;;;;5026375;28;20233;-82
2020/12/20 06:12:40;;;;;;;9.13;8.10;;;7.80;99.90;;;;;;5022317;28;20248;-83
2020/12/20 06:15:12;;;;;;;9.97;8.43;;;7.70;99.90;;;;;;5011655;28;20656;-82
2020/12/20 06:17:44;;;;;;;8.80;7.87;;;7.80;99.90;;;;;;5026672;28;20299;-82
2020/12/20 06:20:29;;;;;;;9.73;8.20;;;7.70;99.90;;;;;;5015460;28;20248;-82
2020/12/20 06:22:58;;;;;;;9.37;8.37;;;7.80;99.90;;;;;;5007011;28;20320;-83
2020/12/20 06:25:27;;;;;;;9.60;8.60;;;7.70;99.90;;;;;;5014944;28;20264;-83
2020/12/20 06:28:04;;;;;;;9.50;8.50;;;7.70;99.90;;;;;;5011680;28;20324;-83
2020/12/20 06:30:32;;;;;;;10.00;8.83;;;7.70;99.90;;;;;;5008681;28;20244;-83
2020/12/20 06:33:03;;;;;;;9.37;8.47;;;7.70;99.90;;;;;;5010826;28;20232;-82
2020/12/20 06:35:32;;;;;;;9.93;8.63;;;7.70;99.90;;;;;;4999975;28;21093;-83
2020/12/20 06:37:59;;;;;;;10.70;8.20;;;7.70;99.90;;;;;;5005918;28;20233;-82
2020/12/20 06:40:42;;;;;;;9.53;8.03;;;7.70;99.90;;;;;;4990734;28;20238;-82
2020/12/20 06:43:11;;;;;;;10.00;8.20;;;7.70;99.90;;;;;;5003061;28;20562;-83
2020/12/20 06:45:45;;;;;;;8.77;7.87;;;7.70;99.90;;;;;;5029857;28;20243;-82
2020/12/20 06:48:15;;;;;;;9.07;7.80;;;7.70;99.90;;;;;;5034157;28;20267;-82
2020/12/20 06:50:47;;;;;;;9.27;7.73;;;7.60;99.90;;;;;;5025819;28;20572;-83
2020/12/20 06:53:17;;;;;;;9.30;8.30;;;7.70;99.90;;;;;;5029937;28;20298;-82
2020/12/20 06:55:45;;;;;;;9.97;8.50;;;7.70;99.90;;;;;;5029806;28;20244;-82
2020/12/20 06:58:18;;;;;;;9.63;8.63;;;7.70;99.90;;;;;;5029699;28;20239;-82
2020/12/20 07:00:55;;;;;;;10.37;9.23;;;7.70;99.90;;;;;;5030728;28;20228;-84
2020/12/20 07:03:40;;;;;;;8.90;8.00;;;7.70;99.90;;;;;;5029765;28;20239;-82
2020/12/20 07:06:16;;;;;;;11.43;8.73;;;7.70;99.90;;;;;;5029047;28;20232;-82
2020/12/20 07:09:07;;;;;;;9.53;8.47;;;7.70;99.90;;;;;;5031547;28;20859;-82
2020/12/20 07:11:47;;;;;;;12.70;9.10;;;7.70;99.90;;;;;;5029260;28;20315;-82
2020/12/20 07:14:21;;;;;;;9.60;8.57;;;7.70;99.90;;;;;;5030571;28;20355;-82
2020/12/20 07:16:50;;;;;;;9.43;8.43;;;7.60;99.90;;;;;;5009954;28;20243;-82
2020/12/20 07:19:23;;;;;;;11.57;8.20;;;7.70;99.90;;;;;;5033703;28;20240;-83
2020/12/20 07:22:11;;;;;;;10.73;8.97;;;7.60;99.90;;;;;;5034431;28;20233;-82
2020/12/20 07:24:39;;;;;;;10.17;9.10;;;7.60;99.90;;;;;;5046879;28;20651;-81
2020/12/20 07:27:07;;;;;;;10.20;9.10;;;7.60;99.90;;;;;;5033028;28;20260;-83
2020/12/20 07:29:38;;;;;;;9.57;8.53;;;7.60;99.90;;;;;;5037353;28;20242;-82
2020/12/20 07:32:07;;;;;;;10.50;8.73;;;7.60;99.90;;;;;;5051737;28;20606;-81
2020/12/20 07:34:35;;;;;;;10.13;9.00;;;7.60;99.90;;;;;;5054036;28;20233;-82
2020/12/20 07:37:12;;;;;;;9.87;8.90;;;7.60;99.90;;;;;;5031418;28;20256;-82
2020/12/20 07:39:41;;;;;;;10.27;8.57;;;7.60;99.90;;;;;;5032517;28;20232;-82
2020/12/20 07:42:09;;;;;;;10.23;8.63;;;7.60;99.90;;;;;;5032209;28;20327;-82
2020/12/20 07:44:39;;;;;;;12.10;9.67;;;7.60;99.90;;;;;;5032542;28;20310;-84
2020/12/20 07:47:12;;;;;;;11.43;9.03;;;7.60;99.90;;;;;;5033315;28;20240;-84
2020/12/20 07:49:39;;;;;;;9.37;8.27;;;7.60;99.90;;;;;;5047217;28;20933;-83
2020/12/20 07:52:10;;;;;;;9.50;8.60;;;7.60;99.90;;;;;;5032446;28;20232;-84
2020/12/20 07:54:37;;;;;;;10.10;8.97;;;7.60;99.90;;;;;;5032031;28;20791;-82
2020/12/20 07:57:05;;;;;;;11.03;9.07;;;7.60;99.90;;;;;;5032172;28;20298;-83
2020/12/20 07:59:35;;;;;;;10.77;9.10;;;7.60;99.90;;;;;;5031621;28;20248;-83
2020/12/20 08:02:02;;;;;;;9.37;8.47;;;7.60;99.90;;;;;;5032201;28;20236;-82
2020/12/20 08:04:31;;;;;;;9.87;8.87;;;7.60;99.90;;;;;;5030475;28;20287;-83
2020/12/20 08:06:58;;;;;;;10.70;8.97;;;7.60;99.90;;;;;;5031896;28;20232;-83
2020/12/20 08:09:27;;;;;;;11.37;9.07;;;7.60;99.90;;;;;;5031499;28;20287;-82
2020/12/20 08:11:56;;;;;;;9.87;8.87;;;7.60;99.90;;;;;;5031463;28;20266;-83
2020/12/20 08:14:25;;;;;;;9.90;8.90;;;7.60;99.90;;;;;;5031824;28;20232;-83
2020/12/20 08:16:54;;;;;;;9.17;8.27;;;7.60;99.90;;;;;;5031708;28;20326;-83
2020/12/20 08:19:26;;;;;;;9.30;8.10;;;7.60;99.90;;;;;;5031521;28;20233;-83
2020/12/20 08:22:01;;;;;;;10.30;8.53;;;7.60;99.90;;;;;;5027043;28;20263;-82
2020/12/20 08:24:31;;;;;;;10.30;8.47;;;7.60;99.90;;;;;;5030228;28;20244;-81
2020/12/20 08:27:12;;;;;;;9.30;8.23;;;7.60;99.90;;;;;;5028570;28;20375;-83
2020/12/20 08:29:41;;;;;;;10.20;9.03;;;7.60;99.90;;;;;;5035976;28;20236;-82
2020/12/20 08:32:12;;;;;;;10.80;8.70;;;7.60;99.90;;;;;;5023552;28;20228;-83
2020/12/20 08:34:40;;;;;;;9.33;8.30;;;7.60;99.90;;;;;;5024132;28;20862;-84
2020/12/20 08:37:15;;;;;;;9.10;8.10;;;7.60;99.90;;;;;;5024614;28;20636;-82
2020/12/20 08:39:43;;;;;;;10.27;9.20;;;7.60;99.90;;;;;;5022788;28;20236;-82
2020/12/20 08:42:14;;;;;;;10.10;9.10;;;7.60;99.90;;;;;;5024941;28;20742;-83
2020/12/20 08:44:45;;;;;;;9.77;8.77;;;7.50;99.90;;;;;;5023799;28;20829;-83
2020/12/20 08:47:15;;;;;;;9.43;8.30;;;7.60;99.90;;;;;;5023951;28;20724;-82
2020/12/20 08:49:54;;;;;;;10.43;9.23;;;7.60;99.90;;;;;;5012220;28;20245;-82
2020/12/20 08:52:26;;;;;;;10.87;9.43;;;7.60;99.90;;;;;;5003608;28;21783;-83
2020/12/20 08:54:55;;;;;;;10.53;9.03;;;7.60;99.90;;;;;;5004773;28;20705;-82
2020/12/20 08:57:25;;;;;;;12.83;9.77;;;7.60;99.90;;;;;;5001409;28;20247;-83
2020/12/20 08:59:55;;;;;;;9.77;8.73;;;7.60;99.90;;;;;;5004125;28;20253;-82
2020/12/20 09:02:24;;;;;;;9.90;8.50;;;7.70;99.90;;;;;;5002802;28;20578;-82
2020/12/20 09:04:57;;;;;;;9.97;8.97;;;7.70;99.90;;;;;;5004106;28;20663;-83
2020/12/20 09:07:34;;;;;;;11.33;9.67;;;7.70;99.90;;;;;;5003817;28;20233;-82
2020/12/20 09:10:08;;;;;;;10.63;8.93;;;7.70;99.90;;;;;;5004241;28;20335;-83
2020/12/20 09:12:37;;;;;;;9.20;8.30;;;7.70;99.90;;;;;;5001739;28;20256;-83
2020/12/20 09:15:10;;;;;;;10.37;9.13;;;7.70;99.90;;;;;;5004654;28;20253;-81
2020/12/20 09:17:40;;;;;;;10.50;8.37;;;7.80;99.90;;;;;;5003179;28;20297;-82
2020/12/20 09:20:11;;;;;;;9.20;8.30;;;7.80;99.90;;;;;;5003991;28;20352;-82
2020/12/20 09:22:46;;;;;;;10.03;8.87;;;7.80;99.90;;;;;;5002126;28;20233;-82
2020/12/20 09:25:16;;;;;;;10.50;9.00;;;7.90;99.90;;;;;;5018854;28;20248;-83
2020/12/20 09:27:58;;;;;;;9.77;8.77;;;7.90;99.90;;;;;;5018206;28;20335;-81
2020/12/20 09:30:35;;;;;;;9.83;8.83;;;7.90;99.90;;;;;;5004211;28;20241;-83
2020/12/20 09:33:16;;;;;;;11.53;9.77;;;7.90;99.90;;;;;;5003931;28;20267;-82
2020/12/20 09:35:52;;;;;;;10.03;9.03;;;8.00;99.90;;;;;;5004620;28;20261;-82
2020/12/20 09:38:21;;;;;;;11.37;9.67;;;8.10;99.90;;;;;;5004723;28;20264;-83
2020/12/20 09:40:59;;;;;;;10.73;9.40;;;8.10;99.90;;;;;;5004033;28;20233;-83
2020/12/20 09:43:27;;;;;;;10.27;9.20;;;8.10;99.90;;;;;;5001916;28;20264;-82
2020/12/20 09:45:55;;;;;;;11.77;9.80;;;8.20;99.90;;;;;;5003678;28;20244;-82
2020/12/20 09:48:23;;;;;;;10.03;8.93;;;8.20;99.90;;;;;;5004084;28;20324;-83
2020/12/20 09:50:51;;;;;;;9.93;8.77;;;8.20;99.90;;;;;;5042491;28;20663;-82
2020/12/20 09:53:20;;;;;;;11.73;9.70;;;8.20;99.90;;;;;;5039055;28;20739;-82
2020/12/20 09:55:47;;;;;;;9.47;8.43;;;8.20;99.90;;;;;;5043143;28;20231;-83
2020/12/20 09:58:16;;;;;;;11.43;9.00;;;8.20;99.90;;;;;;5042470;28;20322;-82
2020/12/20 10:00:45;;;;;;;10.10;9.00;;;8.20;99.90;;;;;;5042465;28;20314;-83
2020/12/20 10:03:12;;;;;;;10.90;8.77;;;8.20;99.90;;;;;;5041147;28;20282;-83
2020/12/20 10:05:42;;;;;;;13.40;11.73;;;8.30;99.90;;;;;;5041949;28;20259;-82
2020/12/20 10:08:11;;;;;;;12.47;10.97;;;8.30;99.90;;;;;;5040821;28;20246;-82
2020/12/20 10:10:39;;;;;;;10.47;9.37;;;8.40;99.90;;;;;;5041698;28;20243;-82
2020/12/20 10:13:07;;;;;;;10.93;9.83;;;8.40;99.90;;;;;;5021067;28;20251;-83
2020/12/20 10:15:34;;;;;;;11.70;10.27;;;8.40;99.90;;;;;;5040678;28;20231;-82
2020/12/20 10:18:02;;;;;;;10.47;9.20;;;8.50;99.90;;;;;;5042206;28;20251;-83
2020/12/20 10:20:31;;;;;;;10.80;9.67;;;8.50;99.90;;;;;;5041348;28;20247;-82
2020/12/20 10:22:59;;;;;;;11.27;10.07;;;8.50;99.90;;;;;;5039722;28;20247;-83
2020/12/20 10:25:28;;;;;;;10.33;9.33;;;8.50;99.90;;;;;;5041691;28;20243;-82
2020/12/20 10:27:57;;;;;;;10.17;9.13;;;8.50;99.90;;;;;;5042039;28;20247;-83
2020/12/20 10:30:26;;;;;;;10.50;9.37;;;8.60;99.90;;;;;;5031449;28;20231;-83
2020/12/20 10:32:55;;;;;;;10.20;9.17;;;8.60;99.90;;;;;;5040522;28;21470;-82
2020/12/20 10:35:24;;;;;;;9.77;8.77;;;8.50;99.90;;;;;;5042727;28;20236;-84
2020/12/20 10:37:53;;;;;;;13.20;10.23;;;8.50;99.90;;;;;;5041082;28;20236;-82
2020/12/20 10:40:22;;;;;;;10.53;9.50;;;8.50;99.90;;;;;;5040639;28;20266;-84
2020/12/20 10:42:50;;;;;;;11.23;9.27;;;8.50;99.90;;;;;;5041626;28;20239;-82
2020/12/20 10:45:21;;;;;;;10.83;9.40;;;8.60;99.90;;;;;;5042047;28;20301;-83
2020/12/20 10:47:48;;;;;;;11.23;9.80;;;8.60;99.90;;;;;;5040373;28;20239;-83
2020/12/20 10:50:18;;;;;;;10.43;9.20;;;8.60;99.90;;;;;;5041942;28;20235;-83
2020/12/20 10:52:46;;;;;;;12.73;10.00;;;8.60;99.90;;;;;;5042276;28;20243;-82
2020/12/20 10:55:14;;;;;;;12.83;9.47;;;8.60;99.90;;;;;;5043659;28;20236;-83
2020/12/20 10:57:44;;;;;;;11.70;9.47;;;8.60;99.90;;;;;;5042681;28;20235;-82
2020/12/20 11:00:12;;;;;;;11.27;10.03;;;8.60;99.90;;;;;;5045876;28;20297;-83
2020/12/20 11:02:41;;;;;;;13.60;10.33;;;8.60;99.90;;;;;;5045257;28;20239;-84
2020/12/20 11:05:25;;;;;;;12.33;10.60;;;8.60;99.90;;;;;;5046785;28;20270;-83
2020/12/20 11:07:53;;;;;;;12.27;10.73;;;8.70;99.90;;;;;;5045976;28;20248;-84
2020/12/20 11:10:21;;;;;;;11.13;9.93;;;8.70;99.90;;;;;;5045833;28;20231;-82
2020/12/20 11:12:48;;;;;;;11.20;10.00;;;8.70;99.90;;;;;;5042970;28;20239;-83
2020/12/20 11:15:16;;;;;;;12.73;11.00;;;8.70;99.90;;;;;;5049773;28;20231;-82
2020/12/20 11:17:46;;;;;;;14.47;10.83;;;8.80;99.90;;;;;;5050993;28;20231;-83
2020/12/20 11:20:14;;;;;;;12.70;10.80;;;8.80;99.90;;;;;;5050922;28;20236;-82
2020/12/20 11:22:43;;;;;;;13.87;11.80;;;8.70;99.90;;;;;;5051328;28;20236;-83
2020/12/20 11:25:10;;;;;;;13.60;12.10;;;8.70;99.90;;;;;;5053517;28;20231;-83
2020/12/20 11:27:38;;;;;;;13.50;12.10;;;8.70;99.90;;;;;;5051216;28;20247;-84
2020/12/20 11:30:06;;;;;;;16.47;13.00;;;8.80;99.90;;;;;;5033685;28;20293;-83
2020/12/20 11:32:35;;;;;;;15.97;13.53;;;8.70;99.90;;;;;;5051925;28;20224;-82
2020/12/20 11:35:04;;;;;;;16.80;12.90;;;8.70;99.90;;;;;;5052279;28;20259;-82
2020/12/20 11:37:32;;;;;;;14.80;12.47;;;8.80;99.90;;;;;;5053885;28;20301;-82
2020/12/20 11:40:00;;;;;;;17.23;14.37;;;8.80;99.90;;;;;;5052774;28;20228;-82
2020/12/20 11:42:27;;;;;;;15.93;13.23;;;8.90;99.90;;;;;;5050323;28;20865;-82
2020/12/20 11:44:56;;;;;;;15.07;11.33;;;8.90;99.90;;;;;;5032767;28;20239;-81
2020/12/20 11:47:24;;;;;;;12.40;10.90;;;9.10;99.90;;;;;;5050750;28;20259;-84
2020/12/20 11:49:51;;;;;;;12.10;10.80;;;9.10;99.90;;;;;;5050828;28;20286;-83
2020/12/20 11:52:27;;;;;;;12.03;10.63;;;9.00;99.90;;;;;;5051065;28;20239;-83
2020/12/20 11:54:55;;;;;;;12.57;11.13;;;9.00;99.90;;;;;;5051298;28;20980;-84
2020/12/20 11:57:22;;;;;;;12.77;11.33;;;9.00;99.90;;;;;;5045868;28;21259;-83
2020/12/20 11:59:53;;;;;;;12.53;11.23;;;9.10;99.90;;;;;;5051280;28;20576;-84
2020/12/20 12:02:21;;;;;;;13.97;10.50;;;9.10;99.90;;;;;;5051244;28;20256;-84
2020/12/20 12:04:48;;;;;;;16.27;11.23;;;9.20;99.90;;;;;;5049695;28;20246;-83
2020/12/20 12:07:17;;;;;;;12.10;10.83;;;9.20;99.90;;;;;;5048086;28;20239;-82
2020/12/20 12:09:46;;;;;;;12.83;9.90;;;9.20;99.90;;;;;;5051062;28;20664;-82
2020/12/20 12:12:13;;;;;;;11.83;10.33;;;9.20;99.90;;;;;;5050860;28;20282;-82
2020/12/20 12:14:43;;;;;;;11.70;10.50;;;9.20;99.90;;;;;;5049637;28;20293;-81
2020/12/20 12:17:11;;;;;;;11.87;10.60;;;9.20;99.90;;;;;;5050100;28;20227;-82
2020/12/20 12:19:38;;;;;;;12.33;10.60;;;9.30;99.90;;;;;;5050759;28;20245;-83
2020/12/20 12:22:06;;;;;;;11.30;10.20;;;9.30;99.90;;;;;;5050405;28;20277;-82
2020/12/20 12:24:33;;;;;;;12.13;10.00;;;9.30;99.90;;;;;;5051460;28;20256;-82
2020/12/20 12:27:03;;;;;;;13.17;10.80;;;9.40;99.90;;;;;;5052021;28;20243;-82
2020/12/20 12:29:31;;;;;;;12.77;11.23;;;9.30;99.90;;;;;;5051239;28;20251;-83
2020/12/20 12:32:01;;;;;;;12.57;11.23;;;9.30;99.90;;;;;;5050034;28;20289;-82
2020/12/20 12:34:28;;;;;;;13.63;11.47;;;9.30;99.90;;;;;;5050956;28;20236;-82
2020/12/20 12:36:56;;;;;;;14.30;12.03;;;9.30;99.90;;;;;;5033443;28;20323;-82
2020/12/20 12:39:23;;;;;;;13.70;11.87;;;9.30;99.90;;;;;;5051472;28;20244;-82
2020/12/20 12:41:50;;;;;;;13.53;11.97;;;9.40;99.90;;;;;;5051298;28;20765;-83
2020/12/20 12:44:19;;;;;;;13.93;11.37;;;9.40;99.90;;;;;;5049042;28;20297;-82
2020/12/20 12:46:47;;;;;;;12.47;11.13;;;9.40;99.90;;;;;;5051486;28;20236;-82
2020/12/20 12:49:14;;;;;;;12.67;11.27;;;9.30;99.90;;;;;;5051043;28;20349;-83
2020/12/20 12:51:42;;;;;;;13.33;11.23;;;9.30;99.90;;;;;;5050471;28;20310;-82
2020/12/20 12:54:10;;;;;;;11.97;10.57;;;9.30;99.90;;;;;;5050572;28;20707;-81
2020/12/20 12:56:54;;;;;;;12.37;10.80;;;9.40;99.90;;;;;;5030606;28;20248;-82
2020/12/20 12:59:23;;;;;;;14.63;11.33;;;9.40;99.90;;;;;;5050752;28;20315;-82
2020/12/20 13:01:50;;;;;;;11.80;10.60;;;9.30;99.90;;;;;;5050569;28;20232;-81
2020/12/20 13:04:19;;;;;;;12.97;11.57;;;9.30;99.90;;;;;;5050046;28;20260;-83
2020/12/20 13:06:47;;;;;;;14.20;12.80;;;9.30;99.90;;;;;;5050385;28;20232;-81
2020/12/20 13:09:14;;;;;;;13.90;12.37;;;9.30;99.90;;;;;;5042129;28;20385;-80
2020/12/20 13:11:42;;;;;;;13.00;11.70;;;9.30;99.90;;;;;;5042175;28;20272;-82